Time;durP1;ratioP1;P1;durP2;ratioP2;P2;SDS_P1;SDS_P2;PMS_P1;PMS_P2;Temp;Humidity;BMP_temperature;BMP_pressure;BME280_temperature;BME280_humidity;BME280_pressure;Samples;Min_cycle;Max_cycle;Signal;HPM_P1;HPM_P2
2021/06/18 00:00:52;;;;;;;6.22;5.57;;;20.30;95.10;;;;;;5103867;28;19951;-62
2021/06/18 00:03:18;;;;;;;14.30;6.40;;;20.40;95.10;;;;;;5103659;28;20096;-61
2021/06/18 00:05:43;;;;;;;7.63;5.90;;;20.20;95.20;;;;;;5105109;28;20763;-62
2021/06/18 00:08:09;;;;;;;8.80;5.28;;;20.20;95.30;;;;;;5104908;28;20039;-61
2021/06/18 00:10:34;;;;;;;10.15;5.20;;;20.10;95.00;;;;;;5104085;28;20120;-62
2021/06/18 00:13:00;;;;;;;10.23;6.25;;;20.10;95.20;;;;;;5104251;28;20039;-61
2021/06/18 00:15:26;;;;;;;10.45;5.30;;;20.10;95.10;;;;;;5104676;28;20511;-61
2021/06/18 00:17:52;;;;;;;8.48;5.38;;;20.10;95.40;;;;;;5096265;28;20043;-61
2021/06/18 00:20:18;;;;;;;11.63;6.00;;;20.00;95.80;;;;;;5090344;28;20742;-61
2021/06/18 00:22:44;;;;;;;8.00;5.25;;;20.00;95.40;;;;;;5090739;28;20513;-62
2021/06/18 00:25:11;;;;;;;7.03;5.78;;;20.10;95.30;;;;;;5090993;28;20570;-61
2021/06/18 00:27:36;;;;;;;9.35;5.45;;;20.00;95.30;;;;;;5082629;28;20518;-61
2021/06/18 00:30:06;;;;;;;;;;;19.90;95.70;;;;;;5090529;28;20044;-61
2021/06/18 00:32:32;;;;;;;9.77;5.93;;;19.90;95.60;;;;;;5087641;28;19920;-60
2021/06/18 00:34:57;;;;;;;;;;;19.80;95.50;;;;;;5079590;28;20036;-60
2021/06/18 00:37:23;;;;;;;8.13;5.43;;;19.90;96.10;;;;;;5090661;28;20288;-61
2021/06/18 00:39:48;;;;;;;;;;;19.90;95.80;;;;;;5091230;28;20047;-61
2021/06/18 00:42:14;;;;;;;6.97;5.43;;;19.80;96.00;;;;;;5090036;28;20341;-62
2021/06/18 00:44:40;;;;;;;8.32;5.00;;;19.80;96.00;;;;;;5090657;28;20036;-61
2021/06/18 00:47:19;;;;;;;9.27;5.32;;;19.80;96.20;;;;;;5089130;28;20051;-61
2021/06/18 00:49:45;;;;;;;9.40;5.20;;;19.70;95.90;;;;;;5090146;28;20123;-61
2021/06/18 00:52:11;;;;;;;6.82;5.32;;;19.70;96.10;;;;;;5090074;28;20794;-61
2021/06/18 00:54:39;;;;;;;9.60;5.28;;;19.70;95.90;;;;;;5088595;28;20040;-61
2021/06/18 00:57:05;;;;;;;6.32;4.72;;;19.70;95.40;;;;;;5087936;28;20109;-59
2021/06/18 00:59:30;;;;;;;6.03;4.93;;;19.70;95.50;;;;;;5084864;28;20482;-62
2021/06/18 01:01:56;;;;;;;;;;;19.60;95.40;;;;;;5085340;28;20064;-62
2021/06/18 01:04:25;;;;;;;11.10;5.13;;;19.60;95.70;;;;;;5090250;28;20337;-58
2021/06/18 01:07:27;;;;;;;8.25;4.97;;;19.50;95.80;;;;;;5089607;28;20040;-62
2021/06/18 01:10:03;;;;;;;6.97;4.72;;;19.50;96.00;;;;;;5072180;28;20407;-62
2021/06/18 01:12:35;;;;;;;7.05;5.30;;;19.50;96.10;;;;;;5088543;28;20039;-62
2021/06/18 01:15:11;;;;;;;10.20;5.30;;;19.50;96.70;;;;;;5089106;28;20047;-62
2021/06/18 01:17:45;;;;;;;8.90;5.50;;;19.50;96.80;;;;;;5089679;28;20079;-61
2021/06/18 01:20:47;;;;;;;10.50;6.15;;;19.40;96.60;;;;;;5089209;28;20040;-60
2021/06/18 01:23:38;;;;;;;9.98;4.78;;;19.40;96.60;;;;;;5089231;28;20044;-58
2021/06/18 01:26:22;;;;;;;14.93;5.90;;;19.40;96.80;;;;;;5088060;28;20043;-62
2021/06/18 01:28:55;;;;;;;7.88;5.45;;;19.40;96.50;;;;;;5084177;28;20040;-61
2021/06/18 01:31:26;;;;;;;6.80;5.25;;;19.40;96.70;;;;;;5088066;28;20040;-61
2021/06/18 01:33:58;;;;;;;13.20;6.43;;;19.30;96.70;;;;;;5076379;28;20727;-61
2021/06/18 01:36:26;;;;;;;14.20;5.53;;;19.20;96.80;;;;;;5069791;28;20045;-61
2021/06/18 01:38:53;;;;;;;14.48;5.20;;;19.10;97.00;;;;;;5069095;28;20041;-61
2021/06/18 01:41:22;;;;;;;6.30;4.97;;;19.10;97.10;;;;;;5068354;28;20124;-61
2021/06/18 01:43:51;;;;;;;11.70;5.55;;;19.10;97.30;;;;;;5068863;28;20040;-62
2021/06/18 01:46:23;;;;;;;7.35;5.55;;;19.00;97.50;;;;;;5069199;28;20500;-62
2021/06/18 01:49:03;;;;;;;12.85;5.78;;;18.90;97.60;;;;;;5068114;28;20048;-61
2021/06/18 01:51:31;;;;;;;7.38;5.32;;;19.00;97.70;;;;;;5072631;28;20407;-61
2021/06/18 01:53:58;;;;;;;7.22;5.68;;;19.00;97.70;;;;;;5089501;28;20047;-61
2021/06/18 01:56:25;;;;;;;8.20;5.43;;;19.00;97.90;;;;;;5086051;28;20044;-61
2021/06/18 01:58:54;;;;;;;6.82;5.15;;;19.10;97.60;;;;;;5088010;28;20040;-62
2021/06/18 02:01:22;;;;;;;10.50;5.65;;;19.10;97.50;;;;;;5088268;28;20059;-58
2021/06/18 02:03:49;;;;;;;8.93;6.00;;;19.00;97.50;;;;;;5088965;28;20067;-61
2021/06/18 02:06:17;;;;;;;12.60;5.40;;;19.00;97.80;;;;;;5089122;28;20047;-62
2021/06/18 02:08:45;;;;;;;8.02;6.00;;;19.00;98.00;;;;;;5088341;28;20043;-61
2021/06/18 02:11:13;;;;;;;7.70;5.05;;;19.10;98.10;;;;;;5088466;28;20118;-61
2021/06/18 02:13:40;;;;;;;9.60;5.93;;;18.90;97.70;;;;;;5086575;28;20083;-62
2021/06/18 02:16:07;;;;;;;18.85;10.30;;;18.90;97.90;;;;;;5088367;28;20043;-62
2021/06/18 02:18:33;;;;;;;8.73;6.68;;;18.90;98.10;;;;;;5088569;28;20048;-62
2021/06/18 02:21:00;;;;;;;;;;;18.80;98.10;;;;;;5089576;28;20055;-62
2021/06/18 02:23:33;;;;;;;10.80;5.88;;;18.80;98.00;;;;;;5087154;28;19916;-60
2021/06/18 02:26:00;;;;;;;9.65;6.00;;;18.80;98.30;;;;;;5085143;28;20488;-58
2021/06/18 02:28:27;;;;;;;10.98;5.20;;;18.80;98.10;;;;;;5084215;28;20048;-62
2021/06/18 02:30:53;;;;;;;9.95;5.78;;;18.70;98.10;;;;;;5067881;28;20039;-61
2021/06/18 02:33:19;;;;;;;6.20;5.32;;;18.80;98.10;;;;;;5075747;28;20040;-61
2021/06/18 02:35:45;;;;;;;;;;;18.90;98.10;;;;;;5081289;28;20068;-62
2021/06/18 02:38:11;;;;;;;13.13;5.65;;;18.90;98.00;;;;;;5076880;28;19920;-62
2021/06/18 02:40:37;;;;;;;8.77;5.85;;;18.80;97.90;;;;;;5068362;28;20477;-62
2021/06/18 02:43:04;;;;;;;9.52;5.63;;;18.90;98.40;;;;;;5066946;28;20040;-62
2021/06/18 02:45:29;;;;;;;5.60;5.00;;;18.90;98.50;;;;;;5067918;28;20119;-60
2021/06/18 02:48:03;;;;;;;;;;;18.90;98.40;;;;;;5069232;28;20128;-60
2021/06/18 02:50:43;;;;;;;5.80;5.13;;;18.90;98.00;;;;;;5067474;28;19970;-61
2021/06/18 02:53:33;;;;;;;7.15;5.60;;;18.90;98.00;;;;;;5067276;28;20079;-59
2021/06/18 02:56:08;;;;;;;9.75;6.00;;;18.90;98.10;;;;;;5073222;28;20047;-60
2021/06/18 02:58:52;;;;;;;8.88;4.75;;;18.90;98.30;;;;;;5081590;28;20128;-60
2021/06/18 03:01:23;;;;;;;11.20;6.28;;;18.70;98.30;;;;;;5087539;28;20468;-61
2021/06/18 03:03:53;;;;;;;8.63;6.13;;;18.70;99.00;;;;;;5087898;28;20063;-59
2021/06/18 03:06:20;;;;;;;7.20;5.53;;;18.70;98.50;;;;;;5088107;28;20056;-60
2021/06/18 03:08:52;;;;;;;7.80;5.03;;;18.70;98.40;;;;;;5087446;28;20431;-58
2021/06/18 03:11:21;;;;;;;11.60;5.70;;;18.70;97.90;;;;;;5087898;28;20126;-60
2021/06/18 03:13:50;;;;;;;8.77;5.80;;;18.70;97.90;;;;;;5087679;28;20441;-61
2021/06/18 03:16:16;;;;;;;17.42;5.85;;;18.70;98.00;;;;;;5078933;28;20040;-56
2021/06/18 03:18:43;;;;;;;;;;;18.70;98.20;;;;;;5088068;28;20709;-60
2021/06/18 03:21:11;;;;;;;15.90;5.75;;;18.60;98.00;;;;;;5088901;28;19919;-61
2021/06/18 03:23:38;;;;;;;13.00;5.60;;;18.70;97.90;;;;;;5087763;28;20081;-59
2021/06/18 03:26:05;;;;;;;9.82;5.63;;;18.70;98.20;;;;;;5085953;28;20478;-60
2021/06/18 03:28:32;;;;;;;11.73;5.30;;;18.70;98.20;;;;;;5081142;28;21116;-59
2021/06/18 03:30:58;;;;;;;13.25;5.20;;;18.70;98.20;;;;;;5087725;28;20059;-59
2021/06/18 03:33:25;;;;;;;9.00;5.32;;;18.70;98.50;;;;;;5078348;28;20071;-60
2021/06/18 03:35:51;;;;;;;12.77;5.70;;;18.70;98.50;;;;;;5079868;28;20052;-60
2021/06/18 03:38:18;;;;;;;8.98;5.00;;;18.70;98.30;;;;;;5088276;28;20044;-60
2021/06/18 03:40:43;;;;;;;9.48;5.68;;;18.70;99.00;;;;;;5087910;28;20093;-60
2021/06/18 03:43:10;;;;;;;;;;;18.80;98.90;;;;;;5086214;28;20492;-61
2021/06/18 03:45:39;;;;;;;11.35;4.55;;;18.80;98.40;;;;;;5087252;28;19923;-59
2021/06/18 03:48:08;;;;;;;6.28;5.22;;;18.70;98.20;;;;;;5088501;28;20043;-57
2021/06/18 03:50:34;;;;;;;8.75;5.57;;;18.80;98.30;;;;;;5087640;28;20041;-61
2021/06/18 03:53:01;;;;;;;9.10;5.35;;;19.00;97.80;;;;;;5088352;28;20039;-60
2021/06/18 03:55:28;;;;;;;8.35;5.40;;;19.20;97.60;;;;;;5091546;28;20044;-59
2021/06/18 03:57:54;;;;;;;9.75;5.60;;;19.20;97.50;;;;;;5088574;28;20047;-60
2021/06/18 04:00:19;;;;;;;;;;;19.10;97.80;;;;;;5071071;28;20040;-61
2021/06/18 04:02:48;;;;;;;7.75;5.70;;;19.10;97.90;;;;;;5070398;28;19920;-61
2021/06/18 04:05:16;;;;;;;8.05;5.13;;;19.10;97.80;;;;;;5070562;28;20047;-61
2021/06/18 04:07:45;;;;;;;7.18;5.80;;;19.20;97.90;;;;;;5071995;28;20076;-61
2021/06/18 04:10:12;;;;;;;7.72;5.88;;;19.30;97.70;;;;;;5070810;28;20032;-62
2021/06/18 04:12:38;;;;;;;13.43;5.63;;;19.20;97.70;;;;;;5077292;28;20041;-63
2021/06/18 04:15:05;;;;;;;12.02;6.10;;;19.20;98.00;;;;;;5079458;28;20072;-61
2021/06/18 04:17:31;;;;;;;9.63;5.72;;;19.10;97.50;;;;;;5070274;28;20048;-63
2021/06/18 04:19:57;;;;;;;10.25;6.40;;;19.30;98.00;;;;;;5070297;28;20067;-61
2021/06/18 04:22:29;;;;;;;;;;;19.30;97.80;;;;;;5069076;28;20534;-60
2021/06/18 04:24:55;;;;;;;13.70;5.93;;;19.60;97.90;;;;;;5070166;28;19920;-61
2021/06/18 04:27:21;;;;;;;;;;;19.60;97.30;;;;;;5082646;28;20052;-61
2021/06/18 04:29:47;;;;;;;8.63;5.15;;;19.60;98.40;;;;;;5098389;28;19920;-61
2021/06/18 04:32:12;;;;;;;;;;;19.50;98.10;;;;;;5095960;28;20110;-61
2021/06/18 04:34:38;;;;;;;9.02;4.97;;;19.70;98.30;;;;;;5099293;28;20002;-60
2021/06/18 04:37:03;;;;;;;8.10;5.57;;;20.30;97.70;;;;;;5100883;28;20047;-61
2021/06/18 04:39:29;;;;;;;;;;;20.50;96.90;;;;;;5102740;28;20124;-62
2021/06/18 04:41:54;;;;;;;11.93;5.60;;;20.50;97.00;;;;;;5100920;28;19970;-57
2021/06/18 04:44:21;;;;;;;;;;;20.20;97.50;;;;;;5111968;28;20070;-60
2021/06/18 04:46:47;;;;;;;8.48;5.60;;;20.20;97.40;;;;;;5110172;28;19955;-60
2021/06/18 04:49:13;;;;;;;11.38;5.90;;;20.20;97.80;;;;;;5110706;28;20086;-59
2021/06/18 04:51:39;;;;;;;9.85;5.80;;;20.30;97.70;;;;;;5110642;28;20040;-60
2021/06/18 04:54:06;;;;;;;7.18;5.97;;;20.20;97.70;;;;;;5110712;28;20451;-60
2021/06/18 04:56:31;;;;;;;7.05;5.63;;;20.30;97.80;;;;;;5095113;28;20076;-60
2021/06/18 04:58:57;;;;;;;;;;;20.40;97.50;;;;;;5088355;28;20078;-59
2021/06/18 05:01:23;;;;;;;9.85;6.20;;;20.80;97.30;;;;;;5089659;28;19920;-59
2021/06/18 05:03:48;;;;;;;;;;;20.80;96.70;;;;;;5090042;28;20036;-58
2021/06/18 05:06:14;;;;;;;10.27;5.65;;;20.80;96.50;;;;;;5090245;28;20556;-56
2021/06/18 05:08:39;;;;;;;9.10;5.72;;;20.80;96.50;;;;;;5090242;28;20035;-60
2021/06/18 05:11:05;;;;;;;10.90;6.55;;;20.80;97.20;;;;;;5089480;28;20484;-57
2021/06/18 05:13:30;;;;;;;8.45;5.00;;;20.90;97.50;;;;;;5081009;28;20083;-57
2021/06/18 05:15:56;;;;;;;7.68;5.40;;;20.90;97.40;;;;;;5095685;28;20043;-55
2021/06/18 05:18:21;;;;;;;6.47;5.45;;;21.10;97.40;;;;;;5109167;28;20126;-60
2021/06/18 05:20:47;;;;;;;9.00;5.38;;;21.20;97.50;;;;;;5093835;28;20114;-58
2021/06/18 05:23:12;;;;;;;;;;;21.30;97.70;;;;;;5089776;28;20040;-60
2021/06/18 05:25:38;;;;;;;11.32;5.57;;;21.30;97.80;;;;;;5090375;28;20686;-59
2021/06/18 05:28:04;;;;;;;9.48;5.35;;;21.40;97.80;;;;;;5108157;28;20492;-58
2021/06/18 05:30:30;;;;;;;8.88;4.97;;;21.50;97.60;;;;;;5109538;28;20035;-57
2021/06/18 05:32:55;;;;;;;11.32;5.40;;;21.60;97.80;;;;;;5109530;28;20663;-58
2021/06/18 05:35:21;;;;;;;10.27;5.70;;;21.70;97.60;;;;;;5108468;28;20050;-60
2021/06/18 05:37:49;;;;;;;8.30;5.15;;;22.00;97.70;;;;;;5110608;28;20419;-61
2021/06/18 05:40:15;;;;;;;6.70;4.63;;;22.00;97.10;;;;;;5109539;28;20048;-61
2021/06/18 05:42:41;;;;;;;6.40;4.97;;;22.10;97.10;;;;;;5109457;28;20173;-59
2021/06/18 05:45:07;;;;;;;6.20;4.68;;;22.30;97.10;;;;;;5109969;28;20115;-61
2021/06/18 05:47:33;;;;;;;6.85;4.80;;;22.50;96.90;;;;;;5109702;28;20047;-62
2021/06/18 05:49:58;;;;;;;6.90;4.93;;;22.60;96.90;;;;;;5109325;28;20046;-61
2021/06/18 05:52:24;;;;;;;6.85;4.85;;;22.70;97.40;;;;;;5108885;28;20564;-61
2021/06/18 05:54:50;;;;;;;17.70;5.03;;;22.80;97.40;;;;;;5109909;28;20089;-60
2021/06/18 05:57:15;;;;;;;10.45;4.80;;;22.80;97.20;;;;;;5110049;28;20422;-61
2021/06/18 05:59:41;;;;;;;8.07;4.45;;;23.00;96.80;;;;;;5107161;28;20498;-60
2021/06/18 06:02:07;;;;;;;16.55;5.65;;;23.10;96.50;;;;;;5106200;28;20039;-62
2021/06/18 06:04:34;;;;;;;14.43;5.60;;;23.30;96.80;;;;;;5109330;28;20119;-62
2021/06/18 06:06:59;;;;;;;16.02;5.20;;;23.40;97.00;;;;;;5109141;28;20051;-59
2021/06/18 06:09:25;;;;;;;4.68;4.18;;;23.40;96.80;;;;;;5095598;28;20059;-60
2021/06/18 06:11:51;;;;;;;6.97;4.53;;;23.50;96.80;;;;;;5095829;28;20039;-61
2021/06/18 06:14:17;;;;;;;15.82;5.38;;;23.60;97.10;;;;;;5098951;28;20040;-61
2021/06/18 06:16:45;;;;;;;18.30;6.32;;;24.00;94.60;;;;;;5108363;27;20048;-61
2021/06/18 06:19:11;;;;;;;20.58;5.80;;;24.60;94.00;;;;;;5106766;28;20152;-61
2021/06/18 06:21:36;;;;;;;11.27;5.38;;;26.10;91.60;;;;;;5108844;28;20593;-61
2021/06/18 06:24:02;;;;;;;15.93;5.03;;;26.50;91.10;;;;;;5109178;28;20039;-61
2021/06/18 06:26:28;;;;;;;10.57;4.35;;;26.40;91.20;;;;;;5106465;28;20046;-61
2021/06/18 06:28:54;;;;;;;6.72;4.28;;;25.90;90.90;;;;;;5107524;28;20078;-61
2021/06/18 06:31:19;;;;;;;13.30;4.30;;;25.60;91.20;;;;;;5097713;28;20047;-62
2021/06/18 06:33:45;;;;;;;7.13;4.13;;;25.60;91.40;;;;;;5088529;28;20044;-59
2021/06/18 06:36:11;;;;;;;5.45;3.78;;;25.80;91.40;;;;;;5087713;28;20511;-59
2021/06/18 06:38:37;;;;;;;6.10;3.80;;;25.80;91.30;;;;;;5087259;28;20075;-61
2021/06/18 06:41:03;;;;;;;5.47;4.28;;;25.90;91.10;;;;;;5087552;28;20032;-61
2021/06/18 06:43:29;;;;;;;6.05;3.80;;;25.80;91.30;;;;;;5086106;28;20560;-60
2021/06/18 06:45:55;;;;;;;7.03;4.18;;;25.60;91.50;;;;;;5090566;28;20040;-60
2021/06/18 06:48:20;;;;;;;7.28;4.63;;;25.60;91.30;;;;;;5096015;28;20167;-60
2021/06/18 06:50:46;;;;;;;8.45;4.45;;;25.50;91.10;;;;;;5097870;28;20402;-60
2021/06/18 06:53:11;;;;;;;8.00;4.75;;;25.50;91.40;;;;;;5092374;28;20419;-61
2021/06/18 06:55:38;;;;;;;9.27;4.97;;;25.80;90.50;;;;;;5089697;28;20123;-60
2021/06/18 06:58:07;;;;;;;9.88;4.80;;;26.00;90.20;;;;;;5085901;28;20071;-61
2021/06/18 07:00:32;;;;;;;16.98;5.72;;;26.10;90.30;;;;;;5088310;28;20043;-61
2021/06/18 07:02:58;;;;;;;7.35;5.50;;;26.10;90.10;;;;;;5086618;28;20044;-59
2021/06/18 07:05:24;;;;;;;10.65;7.53;;;26.10;91.50;;;;;;5088316;28;20068;-59
2021/06/18 07:07:49;;;;;;;9.80;7.20;;;26.10;85.90;;;;;;5096530;28;20047;-59
2021/06/18 07:10:15;;;;;;;12.43;6.72;;;26.20;83.40;;;;;;5107631;28;20043;-60
2021/06/18 07:12:40;;;;;;;10.88;7.22;;;26.30;83.70;;;;;;5093885;28;20071;-60
2021/06/18 07:15:07;;;;;;;12.55;7.28;;;26.50;83.40;;;;;;5088126;28;20100;-59
2021/06/18 07:17:32;;;;;;;11.55;7.18;;;26.70;80.70;;;;;;5107982;28;20099;-54
2021/06/18 07:20:00;;;;;;;13.63;7.68;;;26.80;82.50;;;;;;5106489;28;20158;-60
2021/06/18 07:22:26;;;;;;;10.98;8.15;;;26.80;83.70;;;;;;5087793;28;20060;-60
2021/06/18 07:24:52;;;;;;;11.38;7.55;;;26.90;79.10;;;;;;5101883;28;20051;-60
2021/06/18 07:27:20;;;;;;;14.85;7.68;;;26.90;81.40;;;;;;5096964;28;20044;-62
2021/06/18 07:29:45;;;;;;;8.57;7.55;;;26.90;81.10;;;;;;5108211;28;20414;-60
2021/06/18 07:32:11;;;;;;;10.25;7.57;;;27.00;77.70;;;;;;5111122;28;20040;-59
2021/06/18 07:34:37;;;;;;;14.63;8.55;;;27.10;80.50;;;;;;5110856;28;20050;-58
2021/06/18 07:37:04;;;;;;;10.32;7.38;;;27.10;80.60;;;;;;5112678;28;20036;-59
2021/06/18 07:39:30;;;;;;;13.77;7.78;;;27.30;79.00;;;;;;5112161;28;20071;-59
2021/06/18 07:41:56;;;;;;;11.82;7.70;;;27.40;76.70;;;;;;5111563;28;20124;-58
2021/06/18 07:44:22;;;;;;;10.60;7.60;;;27.70;75.90;;;;;;5112182;28;20151;-57
2021/06/18 07:46:47;;;;;;;18.23;7.82;;;27.70;76.30;;;;;;5110512;27;20038;-57
2021/06/18 07:49:13;;;;;;;13.07;7.90;;;27.80;76.90;;;;;;5110550;28;20035;-57
2021/06/18 07:51:39;;;;;;;13.35;7.60;;;27.90;75.50;;;;;;5101966;28;20746;-58
2021/06/18 07:54:04;;;;;;;11.70;7.50;;;28.00;74.30;;;;;;5112368;28;20094;-56
2021/06/18 07:56:33;;;;;;;13.95;6.95;;;28.10;74.00;;;;;;5107276;28;20047;-56
2021/06/18 07:58:59;;;;;;;9.82;6.82;;;28.20;75.20;;;;;;5101866;28;20058;-58
2021/06/18 08:01:25;;;;;;;8.90;6.63;;;28.40;74.70;;;;;;5090507;28;20047;-58
2021/06/18 08:03:52;;;;;;;13.25;7.22;;;28.50;71.50;;;;;;5091145;28;20040;-58
2021/06/18 08:06:18;;;;;;;8.90;6.95;;;28.80;70.00;;;;;;5091210;28;20076;-59
2021/06/18 08:08:44;;;;;;;10.18;7.00;;;29.10;70.70;;;;;;5090978;28;20078;-59
2021/06/18 08:11:10;;;;;;;12.63;7.13;;;29.80;68.10;;;;;;5093695;28;20123;-60
2021/06/18 08:13:36;;;;;;;9.35;6.10;;;30.80;66.70;;;;;;5110958;28;20561;-59
2021/06/18 08:16:03;;;;;;;12.35;6.00;;;30.70;64.40;;;;;;5111420;28;20051;-59
2021/06/18 08:18:29;;;;;;;9.38;6.03;;;30.20;62.50;;;;;;5111063;28;20089;-57
2021/06/18 08:20:55;;;;;;;9.25;5.75;;;29.60;65.40;;;;;;5111878;28;20047;-58
2021/06/18 08:23:20;;;;;;;10.27;6.63;;;29.40;66.10;;;;;;5110783;28;20050;-57
2021/06/18 08:25:49;;;;;;;13.82;6.82;;;29.40;66.70;;;;;;5111267;28;20444;-58
2021/06/18 08:28:15;;;;;;;11.45;7.13;;;29.10;67.30;;;;;;5103019;28;20092;-58
2021/06/18 08:30:40;;;;;;;29.48;7.00;;;29.00;70.70;;;;;;5111027;28;20031;-59
2021/06/18 08:33:06;;;;;;;11.32;6.88;;;29.00;69.40;;;;;;5103259;28;20048;-59
2021/06/18 08:35:32;;;;;;;7.85;6.32;;;29.70;66.20;;;;;;5089806;28;20507;-59
2021/06/18 08:38:01;;;;;;;9.32;6.18;;;29.80;65.90;;;;;;5089975;28;20127;-58
2021/06/18 08:40:28;;;;;;;12.65;6.63;;;29.30;65.50;;;;;;5091020;28;20128;-58
2021/06/18 08:42:54;;;;;;;10.18;6.82;;;28.90;68.30;;;;;;5089770;28;20059;-60
2021/06/18 08:45:19;;;;;;;15.43;6.05;;;28.80;67.00;;;;;;5090499;28;20040;-60
2021/06/18 08:47:45;;;;;;;7.43;6.65;;;28.70;68.50;;;;;;5091001;28;20043;-58
2021/06/18 08:50:11;;;;;;;10.93;7.20;;;29.40;68.90;;;;;;5089540;28;20071;-57
2021/06/18 08:52:43;;;;;;;10.85;6.85;;;29.80;64.60;;;;;;5089905;28;20089;-57
2021/06/18 08:55:10;;;;;;;12.20;6.95;;;29.80;64.90;;;;;;5095116;28;20043;-56
2021/06/18 08:57:35;;;;;;;13.60;6.60;;;29.70;64.50;;;;;;5107148;27;20085;-57
2021/06/18 09:00:01;;;;;;;9.55;5.97;;;29.70;67.40;;;;;;5096080;28;20067;-53
2021/06/18 09:02:26;;;;;;;9.43;6.63;;;29.90;65.70;;;;;;5095211;28;20097;-58
2021/06/18 09:05:04;;;;;;;11.32;7.35;;;30.10;68.60;;;;;;5094111;28;20705;-56
2021/06/18 09:07:57;;;;;;;13.55;7.97;;;30.30;67.80;;;;;;5108859;28;20096;-58
2021/06/18 09:10:29;;;;;;;9.98;6.50;;;30.30;65.50;;;;;;5103602;28;20070;-57
2021/06/18 09:13:23;;;;;;;14.80;6.70;;;30.20;67.10;;;;;;5093756;28;20062;-57
2021/06/18 09:15:54;;;;;;;13.52;5.53;;;30.00;61.50;;;;;;5093352;28;20096;-57
2021/06/18 09:18:24;;;;;;;11.38;4.68;;;29.90;65.00;;;;;;5107747;28;20035;-57
2021/06/18 09:21:02;;;;;;;11.85;5.97;;;29.80;59.70;;;;;;5099822;28;20039;-59
2021/06/18 09:23:37;;;;;;;14.02;6.57;;;29.90;62.70;;;;;;5102253;28;20635;-59
2021/06/18 09:26:22;;;;;;;131.25;11.57;;;30.00;62.00;;;;;;5107196;28;20753;-59
2021/06/18 09:29:16;;;;;;;10.43;6.65;;;30.10;64.70;;;;;;5107976;28;20437;-58
2021/06/18 09:31:45;;;;;;;13.63;6.28;;;29.90;61.30;;;;;;5101590;28;20101;-58
2021/06/18 09:34:12;;;;;;;11.30;7.05;;;29.80;63.90;;;;;;5095615;28;20028;-59
2021/06/18 09:36:38;;;;;;;13.57;7.60;;;29.90;65.00;;;;;;5106410;28;20122;-59
2021/06/18 09:39:10;;;;;;;11.35;7.63;;;29.90;65.50;;;;;;5099939;28;20494;-59
2021/06/18 09:41:46;;;;;;;15.65;10.50;;;29.60;64.80;;;;;;5109865;28;20044;-58
2021/06/18 09:44:21;;;;;;;13.68;7.78;;;29.30;66.30;;;;;;5109216;28;20096;-59
2021/06/18 09:46:52;;;;;;;14.00;7.95;;;29.20;68.60;;;;;;5110004;28;20050;-58
2021/06/18 09:49:40;;;;;;;11.15;7.53;;;29.50;68.80;;;;;;5109167;28;20040;-57
2021/06/18 09:52:09;;;;;;;11.63;6.97;;;29.50;65.00;;;;;;5108712;28;20069;-58
2021/06/18 09:54:41;;;;;;;12.95;7.78;;;29.60;67.40;;;;;;5110227;28;20043;-57
2021/06/18 09:57:10;;;;;;;13.90;6.88;;;29.60;66.90;;;;;;5106504;28;20177;-58
2021/06/18 09:59:47;;;;;;;14.52;7.47;;;29.80;67.60;;;;;;5094861;28;20049;-58
2021/06/18 10:02:13;;;;;;;11.52;7.35;;;29.80;67.70;;;;;;5088402;28;20051;-60
2021/06/18 10:04:40;;;;;;;12.10;8.27;;;29.70;67.30;;;;;;5088451;28;20047;-59
2021/06/18 10:07:08;;;;;;;10.55;7.43;;;29.60;65.10;;;;;;5089787;28;20048;-59
2021/06/18 10:09:33;;;;;;;7.97;7.05;;;29.50;67.70;;;;;;5088270;28;20051;-58
2021/06/18 10:11:59;;;;;;;9.80;6.85;;;29.30;68.50;;;;;;5088546;28;20044;-60
2021/06/18 10:14:25;;;;;;;9.75;7.72;;;29.20;70.50;;;;;;5090980;28;20472;-61
2021/06/18 10:16:50;;;;;;;12.27;7.30;;;29.00;69.50;;;;;;5105378;28;20047;-61
2021/06/18 10:19:17;;;;;;;11.80;7.65;;;29.00;74.40;;;;;;5098651;28;20040;-59
2021/06/18 10:22:08;;;;;;;13.52;6.93;;;28.90;75.20;;;;;;5095406;28;20039;-61
2021/06/18 10:25:00;;;;;;;14.90;8.82;;;29.10;75.70;;;;;;5102963;27;20076;-59
2021/06/18 10:27:46;;;;;;;12.48;8.55;;;29.30;70.70;;;;;;5089338;28;20055;-59
2021/06/18 10:30:33;;;;;;;12.73;7.38;;;29.40;69.40;;;;;;5088835;28;20044;-58
2021/06/18 10:33:00;;;;;;;15.32;7.05;;;29.40;67.50;;;;;;5098667;28;20040;-60
2021/06/18 10:35:45;;;;;;;9.80;7.68;;;29.70;71.20;;;;;;5096044;28;20525;-61
2021/06/18 10:38:26;;;;;;;10.38;6.43;;;29.60;70.20;;;;;;5087195;28;20044;-61
2021/06/18 10:40:52;;;;;;;14.90;6.43;;;29.40;64.50;;;;;;5089387;28;20048;-60
2021/06/18 10:43:18;;;;;;;9.15;5.53;;;29.30;61.40;;;;;;5087597;28;20044;-60
2021/06/18 10:45:58;;;;;;;12.43;7.05;;;29.20;64.70;;;;;;5087834;28;20040;-59
2021/06/18 10:48:46;;;;;;;12.00;6.53;;;28.90;68.20;;;;;;5097517;28;20047;-60
2021/06/18 10:51:27;;;;;;;10.48;6.88;;;28.60;66.80;;;;;;5098615;28;20035;-61
2021/06/18 10:54:04;;;;;;;8.73;6.20;;;28.40;71.50;;;;;;5108502;28;20119;-59
2021/06/18 10:56:46;;;;;;;17.83;6.70;;;28.10;70.90;;;;;;5104873;28;20122;-60
2021/06/18 10:59:16;;;;;;;7.63;5.10;;;28.20;70.30;;;;;;5108112;28;20035;-64
2021/06/18 11:01:43;;;;;;;14.13;6.57;;;28.20;71.00;;;;;;5108345;28;20134;-61
2021/06/18 11:04:09;;;;;;;12.80;6.47;;;28.20;71.70;;;;;;5107076;28;20039;-56
2021/06/18 11:06:40;;;;;;;15.60;6.47;;;28.20;72.20;;;;;;5108086;28;20442;-60
2021/06/18 11:09:06;;;;;;;9.68;6.40;;;28.10;71.00;;;;;;5108205;28;20616;-60
2021/06/18 11:11:32;;;;;;;12.93;5.65;;;28.10;71.70;;;;;;5107672;28;20040;-58
2021/06/18 11:14:09;;;;;;;9.77;6.05;;;28.00;70.50;;;;;;5109502;28;20047;-59
2021/06/18 11:16:40;;;;;;;9.70;6.15;;;28.00;70.60;;;;;;5106986;28;20118;-59
2021/06/18 11:19:25;;;;;;;10.45;6.18;;;28.00;68.20;;;;;;5107878;28;20728;-59
2021/06/18 11:21:52;;;;;;;16.42;6.93;;;28.00;71.90;;;;;;5107694;28;20059;-57
2021/06/18 11:24:37;;;;;;;10.57;5.93;;;28.00;75.70;;;;;;5103998;28;20063;-58
2021/06/18 11:27:30;;;;;;;12.95;6.93;;;27.90;74.50;;;;;;5104784;28;20183;-59
2021/06/18 11:30:25;;;;;;;12.23;6.88;;;27.80;72.80;;;;;;5105138;28;20380;-59
2021/06/18 11:32:51;;;;;;;9.82;6.28;;;27.80;72.30;;;;;;5107210;28;20480;-58
2021/06/18 11:35:32;;;;;;;11.73;5.72;;;27.90;74.50;;;;;;5096115;28;20040;-56
2021/06/18 11:38:11;;;;;;;7.70;6.03;;;28.10;71.30;;;;;;5087924;28;20040;-58
2021/06/18 11:40:37;;;;;;;9.10;7.10;;;28.20;71.20;;;;;;5088151;28;20484;-58
2021/06/18 11:43:02;;;;;;;8.57;6.97;;;28.20;71.20;;;;;;5086975;28;20036;-59
2021/06/18 11:45:42;;;;;;;16.67;8.27;;;28.10;72.10;;;;;;5087517;28;20048;-57
2021/06/18 11:48:15;;;;;;;10.50;6.90;;;28.00;68.70;;;;;;5087631;28;20097;-59
2021/06/18 11:50:42;;;;;;;14.30;6.53;;;27.90;69.60;;;;;;5088135;28;20040;-59
2021/06/18 11:53:09;;;;;;;10.93;6.68;;;27.90;72.20;;;;;;5086883;28;20043;-58
2021/06/18 11:55:34;;;;;;;10.48;6.25;;;27.80;76.10;;;;;;5095874;28;20043;-59
2021/06/18 11:58:00;;;;;;;11.52;7.72;;;27.80;72.80;;;;;;5102627;28;20040;-59
2021/06/18 12:00:43;;;;;;;17.05;10.15;;;27.80;78.00;;;;;;5100445;28;20087;-57
2021/06/18 12:03:09;;;;;;;16.30;10.30;;;27.70;82.00;;;;;;5107935;28;20043;-60
2021/06/18 12:05:35;;;;;;;18.77;10.25;;;27.80;84.80;;;;;;5107191;28;20050;-57
2021/06/18 12:08:11;;;;;;;17.95;9.40;;;28.00;86.60;;;;;;5107347;28;20035;-58
2021/06/18 12:10:37;;;;;;;18.23;11.23;;;28.10;84.70;;;;;;5108545;28;20050;-57
2021/06/18 12:13:03;;;;;;;16.70;10.60;;;28.00;85.10;;;;;;5107174;28;20427;-58
2021/06/18 12:15:31;;;;;;;15.05;9.13;;;27.90;82.30;;;;;;5111723;28;20805;-57
2021/06/18 12:17:59;;;;;;;12.45;8.57;;;27.80;82.50;;;;;;5111391;28;20667;-56
2021/06/18 12:20:27;;;;;;;16.23;10.25;;;27.90;82.30;;;;;;5111152;28;20051;-54
2021/06/18 12:22:53;;;;;;;15.05;9.85;;;27.90;84.60;;;;;;5111142;28;20032;-55
2021/06/18 12:25:18;;;;;;;17.20;10.65;;;27.90;82.40;;;;;;5111709;28;20491;-58
2021/06/18 12:27:44;;;;;;;19.40;10.80;;;27.80;82.10;;;;;;5103747;28;20048;-59
2021/06/18 12:30:16;;;;;;;30.02;11.73;;;27.80;81.30;;;;;;5109883;28;20036;-59
2021/06/18 12:32:43;;;;;;;12.00;9.55;;;27.80;83.40;;;;;;5107422;28;20040;-57
2021/06/18 12:35:11;;;;;;;18.42;10.93;;;27.90;83.10;;;;;;5105222;28;20515;-56
2021/06/18 12:37:39;;;;;;;15.88;11.32;;;27.90;82.60;;;;;;5105108;28;20054;-59
2021/06/18 12:40:08;;;;;;;25.45;11.23;;;27.90;84.70;;;;;;5110460;28;20055;-58
2021/06/18 12:42:41;;;;;;;16.80;10.93;;;27.90;86.30;;;;;;5109605;28;20051;-56
2021/06/18 12:45:10;;;;;;;18.83;11.27;;;27.70;86.30;;;;;;5111156;28;20035;-59
2021/06/18 12:47:37;;;;;;;17.77;11.27;;;27.70;86.70;;;;;;5110451;28;20585;-60
2021/06/18 12:50:27;;;;;;;26.30;11.25;;;27.70;86.30;;;;;;5111385;28;20046;-60
2021/06/18 12:52:55;;;;;;;16.70;11.18;;;27.70;87.20;;;;;;5109328;28;20121;-60
2021/06/18 12:55:29;;;;;;;15.10;10.80;;;27.80;86.70;;;;;;5109988;28;20048;-59